Time;durP1;ratioP1;P1;durP2;ratioP2;P2;SDS_P1;SDS_P2;PMS_P1;PMS_P2;Temp;Humidity;BMP_temperature;BMP_pressure;BME280_temperature;BME280_humidity;BME280_pressure;Samples;Min_cycle;Max_cycle;Signal;HPM_P1;HPM_P2
2021/10/01 00:01:28;;;;;;;6.20;4.00;;;;;;;32.10;18.71;95317.25;4992631;28;20046;-45
2021/10/01 00:03:56;;;;;;;5.80;4.00;;;;;;;31.92;18.96;95311.22;4979671;28;20062;-50
2021/10/01 00:06:23;;;;;;;7.20;3.70;;;;;;;31.82;19.36;95321.75;4976427;28;20362;-45
2021/10/01 00:08:50;;;;;;;5.68;3.65;;;;;;;31.68;19.60;95313.72;4975748;28;20050;-44
2021/10/01 00:11:17;;;;;;;6.93;4.15;;;;;;;31.75;19.38;95302.91;4975824;28;20074;-45
2021/10/01 00:13:44;;;;;;;6.18;3.50;;;;;;;31.75;19.45;95313.72;4975465;28;20070;-65
2021/10/01 00:16:11;;;;;;;4.15;3.45;;;;;;;31.85;19.17;95306.66;4976002;28;20047;-45
2021/10/01 00:18:38;;;;;;;6.95;3.70;;;;;;;31.82;19.26;95308.22;4975642;28;20129;-48
2021/10/01 00:21:06;;;;;;;5.07;3.65;;;;;;;31.65;19.55;95313.75;4975760;28;20054;-47
2021/10/01 00:23:33;;;;;;;6.47;3.60;;;;;;;32.03;18.90;95309.22;4979487;28;20477;-46
2021/10/01 00:26:01;;;;;;;8.52;3.70;;;;;;;31.73;19.51;95310.63;4975429;28;20051;-51
2021/10/01 00:28:28;;;;;;;4.82;3.45;;;;;;;32.01;18.96;95308.81;4975886;28;20425;-45
2021/10/01 00:30:55;;;;;;;6.15;3.58;;;;;;;31.93;18.95;95307.34;4987380;28;20051;-49
2021/10/01 00:33:22;;;;;;;6.97;3.53;;;;;;;31.79;19.59;95298.22;4984710;28;20057;-44
2021/10/01 00:35:50;;;;;;;4.88;3.65;;;;;;;31.99;19.35;95300.34;4975883;28;20050;-46
2021/10/01 00:38:17;;;;;;;6.35;3.53;;;;;;;31.95;19.09;95305.78;4990647;28;20055;-45
2021/10/01 00:40:44;;;;;;;6.63;3.50;;;;;;;31.88;19.45;95303.91;4975603;28;20039;-45
2021/10/01 00:43:12;;;;;;;4.07;3.58;;;;;;;31.78;19.46;95298.63;4975403;28;20054;-48
2021/10/01 00:45:39;;;;;;;3.53;3.20;;;;;;;31.75;19.21;95299.41;4975487;28;20061;-46
2021/10/01 00:48:06;;;;;;;6.45;3.88;;;;;;;31.93;19.02;95301.94;4975314;28;20402;-49
2021/10/01 00:50:33;;;;;;;4.10;3.20;;;;;;;31.85;19.50;95296.63;4990580;28;20046;-47
2021/10/01 00:53:01;;;;;;;4.97;3.35;;;;;;;31.84;19.13;95294.31;4994806;28;20462;-50
2021/10/01 00:55:29;;;;;;;7.05;3.90;;;;;;;31.75;19.14;95302.91;4990053;28;20062;-45
2021/10/01 00:57:56;;;;;;;7.07;3.58;;;;;;;31.78;19.15;95294.00;4974362;28;20066;-45
2021/10/01 01:00:29;;;;;;;5.68;3.20;;;;;;;31.80;19.52;95297.06;4999837;28;20061;-47
2021/10/01 01:02:59;;;;;;;5.50;3.30;;;;;;;31.94;19.03;95292.66;4997815;28;20042;-45
2021/10/01 01:05:37;;;;;;;5.35;3.50;;;;;;;31.71;19.79;95302.13;4998194;28;20051;-47
2021/10/01 01:08:09;;;;;;;5.80;3.60;;;;;;;31.69;19.65;95299.03;4994146;28;20053;-45
2021/10/01 01:10:52;;;;;;;5.93;3.40;;;;;;;31.72;19.48;95295.56;4994170;28;20066;-46
2021/10/01 01:13:24;;;;;;;4.70;3.88;;;;;;;32.07;19.27;95296.41;4978024;28;20055;-45
2021/10/01 01:15:57;;;;;;;5.43;3.60;;;;;;;31.71;19.33;95302.13;4977456;28;20401;-50
2021/10/01 01:18:32;;;;;;;8.15;3.95;;;;;;;31.68;19.66;95299.44;4977970;28;20442;-49
2021/10/01 01:21:00;;;;;;;5.40;3.40;;;;;;;31.66;19.62;95294.44;4977931;28;20042;-45
2021/10/01 01:23:52;;;;;;;5.40;3.50;;;;;;;31.69;19.30;95299.03;5010091;28;20088;-47
2021/10/01 01:26:46;;;;;;;5.03;3.50;;;;;;;31.67;19.34;95293.28;4978934;28;20390;-45
2021/10/01 01:29:44;;;;;;;4.95;3.63;;;;;;;31.71;19.44;95296.72;4978450;28;20362;-45
2021/10/01 01:32:22;;;;;;;4.95;3.40;;;;;;;31.44;19.78;95287.66;5001402;28;20055;-46
2021/10/01 01:35:02;;;;;;;4.18;3.47;;;;;;;31.56;19.45;95295.31;4983806;28;20335;-46
2021/10/01 01:37:45;;;;;;;5.67;3.57;;;;;;;31.62;19.93;95288.31;4977608;28;20046;-47
2021/10/01 01:40:16;;;;;;;5.45;3.97;;;;;;;31.58;19.58;95292.97;4993375;28;20045;-48
2021/10/01 01:42:44;;;;;;;5.30;4.00;;;;;;;31.60;19.86;95287.94;4977575;28;20051;-48
2021/10/01 01:45:13;;;;;;;4.80;3.58;;;;;;;31.47;19.91;95282.25;4976586;28;20042;-50
2021/10/01 01:47:41;;;;;;;4.85;3.70;;;;;;;31.57;19.87;95286.03;4992447;28;20047;-47
2021/10/01 01:50:09;;;;;;;4.60;3.80;;;;;;;31.66;19.41;95289.03;4976913;28;20053;-46
2021/10/01 01:52:38;;;;;;;4.43;3.50;;;;;;;31.59;19.67;95294.50;5002579;28;20053;-45
2021/10/01 01:55:06;;;;;;;8.30;4.22;;;;;;;31.42;19.81;95288.06;5013094;28;20050;-45
2021/10/01 01:57:33;;;;;;;4.22;3.50;;;;;;;31.41;19.61;95288.47;4996657;28;20054;-46
2021/10/01 02:00:01;;;;;;;4.63;3.72;;;;;;;31.41;19.79;95283.06;4977467;28;20478;-47
2021/10/01 02:02:50;;;;;;;5.88;3.67;;;;;;;31.52;19.53;95289.16;5010276;28;20369;-48
2021/10/01 02:05:19;;;;;;;5.38;3.92;;;;;;;31.36;19.79;95289.66;4996644;28;20043;-45
2021/10/01 02:07:48;;;;;;;5.18;3.50;;;;;;;31.60;19.87;95301.44;4995594;28;20054;-45
2021/10/01 02:10:15;;;;;;;4.90;3.80;;;;;;;31.45;19.71;95294.59;4975546;28;20051;-46
2021/10/01 02:12:45;;;;;;;6.00;4.13;;;;;;;31.36;19.93;95297.00;4977342;28;20047;-47
2021/10/01 02:15:15;;;;;;;7.70;4.32;;;;;;;31.47;20.05;95297.69;4977023;28;20047;-47
2021/10/01 02:17:44;;;;;;;6.32;4.30;;;;;;;31.64;19.89;95291.38;4977082;28;20051;-47
2021/10/01 02:20:12;;;;;;;5.90;3.60;;;;;;;31.49;20.10;95292.63;4990622;28;20354;-50
2021/10/01 02:22:39;;;;;;;5.97;4.03;;;;;;;31.52;19.84;95300.75;4986200;28;20054;-50
2021/10/01 02:25:07;;;;;;;10.20;3.92;;;;;;;31.98;19.94;95298.81;5012508;28;20061;-47
2021/10/01 02:27:46;;;;;;;5.28;3.97;;;;;;;31.43;20.60;95297.72;5011525;28;20042;-48
2021/10/01 02:30:16;;;;;;;6.40;3.60;;;;;;;31.35;20.57;95292.75;4976767;28;20043;-44
2021/10/01 02:32:51;;;;;;;5.07;3.80;;;;;;;31.26;20.80;95288.59;5012306;28;20053;-45
2021/10/01 02:35:18;;;;;;;6.68;3.72;;;;;;;31.40;20.33;95297.75;4976259;28;20053;-45
2021/10/01 02:37:45;;;;;;;5.25;3.40;;;;;;;31.51;20.34;95293.03;4976426;28;20454;-45
2021/10/01 02:40:15;;;;;;;5.13;3.78;;;;;;;31.38;20.62;95289.28;4976438;28;20046;-46
2021/10/01 02:42:42;;;;;;;5.15;3.28;;;;;;;31.51;20.29;95293.03;4992537;28;20127;-46
2021/10/01 02:45:11;;;;;;;3.88;3.40;;;;;;;31.32;20.52;95290.88;4976149;28;20521;-50
2021/10/01 02:47:40;;;;;;;5.47;4.20;;;;;;;31.53;20.20;95296.88;4992473;28;20058;-46
2021/10/01 02:50:14;;;;;;;6.00;3.80;;;;;;;31.41;20.61;95293.88;4991940;28;20327;-46
2021/10/01 02:53:07;;;;;;;4.38;3.28;;;;;;;31.44;20.25;95295.78;5002296;28;20054;-46
2021/10/01 02:55:46;;;;;;;3.83;3.20;;;;;;;31.48;20.12;95296.50;5000341;28;20062;-45
2021/10/01 02:58:34;;;;;;;4.88;3.50;;;;;;;31.26;20.39;95299.41;4959648;28;20047;-45
2021/10/01 03:01:05;;;;;;;5.25;3.67;;;;;;;31.50;20.20;95299.59;4981573;28;20042;-49
2021/10/01 03:03:37;;;;;;;4.55;3.50;;;;;;;31.31;20.40;95305.53;4987681;28;20370;-44
2021/10/01 03:06:05;;;;;;;5.13;3.88;;;;;;;31.42;20.57;95300.81;4992069;28;20052;-46
2021/10/01 03:08:32;;;;;;;4.00;3.45;;;;;;;31.30;20.80;95302.06;4976774;28;20062;-45
2021/10/01 03:11:00;;;;;;;4.43;3.15;;;;;;;31.39;20.33;95301.59;4991354;28;20049;-44
2021/10/01 03:13:29;;;;;;;4.13;2.97;;;;;;;31.36;20.46;95307.81;4991485;28;20051;-52
2021/10/01 03:15:59;;;;;;;3.95;3.35;;;;;;;31.33;20.45;95298.56;4975645;28;20051;-47
2021/10/01 03:18:28;;;;;;;5.80;3.72;;;;;;;31.38;20.12;95289.28;4975591;28;20050;-45
2021/10/01 03:20:55;;;;;;;5.30;3.78;;;;;;;31.54;20.21;95303.81;4991354;28;20039;-45
2021/10/01 03:23:23;;;;;;;5.53;3.33;;;;;;;31.44;20.32;95303.88;4991230;28;20357;-50
2021/10/01 03:25:51;;;;;;;5.00;3.58;;;;;;;31.49;20.27;95295.34;4997141;28;20046;-46
2021/10/01 03:28:19;;;;;;;5.50;3.97;;;;;;;31.25;20.22;95295.16;4976424;28;20119;-46
2021/10/01 03:30:47;;;;;;;4.43;3.72;;;;;;;31.53;20.02;95291.47;4977597;28;20046;-46
2021/10/01 03:33:15;;;;;;;5.53;3.55;;;;;;;31.30;20.22;95299.38;5011332;28;20042;-45
2021/10/01 03:35:46;;;;;;;6.53;3.92;;;;;;;31.47;20.12;95300.38;4998105;28;20354;-44
2021/10/01 03:38:14;;;;;;;4.95;3.67;;;;;;;31.52;20.34;95297.28;4975372;28;20047;-45
2021/10/01 03:40:44;;;;;;;;;;;;;;;31.51;20.34;95298.44;4975863;28;20051;-47
2021/10/01 03:43:13;;;;;;;6.93;3.85;;;;;;;31.47;20.35;95289.56;4975408;28;19918;-47
2021/10/01 03:45:41;;;;;;;4.38;3.63;;;;;;;31.54;20.46;95289.53;4991209;28;20042;-46
2021/10/01 03:48:09;;;;;;;5.43;3.80;;;;;;;31.22;20.41;95292.47;4991138;28;20050;-45
2021/10/01 03:50:53;;;;;;;5.35;4.07;;;;;;;31.51;19.95;95293.03;4991266;28;20047;-45
2021/10/01 03:53:21;;;;;;;5.72;3.92;;;;;;;31.44;20.21;95290.38;5006281;28;20061;-47
2021/10/01 03:55:48;;;;;;;5.90;4.13;;;;;;;31.57;20.06;95296.84;4981801;28;20050;-45
2021/10/01 03:58:15;;;;;;;4.53;3.45;;;;;;;31.62;19.83;95293.72;4991173;28;20104;-45
2021/10/01 04:00:47;;;;;;;5.97;3.90;;;;;;;31.66;19.92;95286.34;4991731;28;20462;-46
2021/10/01 04:03:16;;;;;;;5.35;3.88;;;;;;;31.59;19.96;95295.28;4994306;28;20046;-46
2021/10/01 04:05:49;;;;;;;5.35;3.80;;;;;;;31.48;20.15;95288.41;4982138;28;20402;-46
2021/10/01 04:08:16;;;;;;;6.40;3.90;;;;;;;31.53;20.09;95296.88;4990574;28;20043;-46
2021/10/01 04:10:45;;;;;;;4.68;3.80;;;;;;;31.49;20.07;95300.75;4990288;28;20054;-47
2021/10/01 04:13:12;;;;;;;5.13;3.78;;;;;;;31.49;20.35;95296.13;4991216;28;20350;-47
2021/10/01 04:15:46;;;;;;;5.75;4.07;;;;;;;31.63;20.18;95292.53;4990538;28;20516;-46
2021/10/01 04:18:13;;;;;;;4.90;4.22;;;;;;;31.50;20.28;95294.22;4974689;28;20468;-45
2021/10/01 04:20:43;;;;;;;5.40;4.65;;;;;;;31.37;20.13;95287.72;4974754;28;20054;-46
2021/10/01 04:23:11;;;;;;;5.28;4.10;;;;;;;31.43;20.23;95288.84;4988321;28;20054;-45
2021/10/01 04:25:58;;;;;;;7.45;4.40;;;;;;;31.44;20.26;95303.88;4982219;28;20063;-45
2021/10/01 04:28:25;;;;;;;7.03;4.28;;;;;;;31.60;20.13;95296.03;4975460;28;20054;-45
2021/10/01 04:30:58;;;;;;;6.38;4.10;;;;;;;31.51;20.37;95298.44;4991226;28;20057;-44
2021/10/01 04:33:27;;;;;;;5.75;4.35;;;;;;;31.35;20.05;95300.88;4995339;28;20050;-45
2021/10/01 04:35:57;;;;;;;5.72;4.10;;;;;;;31.57;20.24;95297.59;4985775;28;20482;-44
2021/10/01 04:38:26;;;;;;;7.28;4.47;;;;;;;31.33;20.08;95308.59;4994471;28;20062;-46
2021/10/01 04:40:53;;;;;;;7.80;4.32;;;;;;;31.37;20.56;95298.53;4994400;28;20042;-51
2021/10/01 04:43:20;;;;;;;6.60;4.00;;;;;;;31.50;20.18;95302.31;4994925;28;20078;-45
2021/10/01 04:46:11;;;;;;;5.25;4.05;;;;;;;31.75;20.42;95300.19;4960644;28;20366;-45
2021/10/01 04:48:39;;;;;;;6.25;4.05;;;;;;;32.00;20.11;95307.28;4981435;28;20459;-47
2021/10/01 04:51:08;;;;;;;7.95;5.07;;;;;;;31.83;20.58;95309.78;4994644;28;20047;-45
2021/10/01 04:53:36;;;;;;;4.82;4.22;;;;;;;31.03;21.49;95293.72;4965730;28;20054;-56
2021/10/01 04:56:03;;;;;;;16.83;4.45;;;;;;;32.68;20.14;95305.38;4986778;28;20054;-53
2021/10/01 04:58:30;;;;;;;6.80;4.65;;;;;;;33.70;18.38;95310.53;4975961;28;20050;-47
2021/10/01 05:01:16;;;;;;;8.93;4.93;;;;;;;34.50;18.04;95318.84;4970484;28;20051;-50
2021/10/01 05:04:02;;;;;;;7.05;4.63;;;;;;;34.93;17.94;95327.69;4964905;28;20077;-45
2021/10/01 05:06:38;;;;;;;6.35;4.28;;;;;;;35.24;17.09;95330.13;4990274;28;20058;-62
2021/10/01 05:09:24;;;;;;;4.82;3.00;;;;;;;37.44;15.52;95331.72;4970161;28;20050;-51
2021/10/01 05:12:20;;;;;;;9.95;4.07;;;;;;;37.75;14.68;95331.97;4967172;28;20054;-49
2021/10/01 05:15:07;;;;;;;7.18;4.07;;;;;;;35.79;16.00;95331.19;4963928;28;20047;-47
2021/10/01 05:17:52;;;;;;;7.43;4.65;;;;;;;34.75;16.93;95332.69;4970635;28;20058;-47
2021/10/01 05:20:38;;;;;;;7.70;4.32;;;;;;;33.90;17.78;95334.28;4969062;28;20047;-46
2021/10/01 05:23:12;;;;;;;11.15;9.68;;;;;;;33.66;18.32;95334.25;4990367;28;20336;-47
2021/10/01 05:25:40;;;;;;;26.80;23.90;;;;;;;33.47;17.98;95337.63;4982432;28;20066;-47
2021/10/01 05:28:07;;;;;;;26.92;21.35;;;;;;;33.36;17.96;95334.31;4991210;28;20058;-47
2021/10/01 05:30:34;;;;;;;15.43;13.13;;;;;;;32.94;18.62;95336.41;4975874;28;20394;-51
2021/10/01 05:33:05;;;;;;;13.55;9.27;;;;;;;32.95;18.67;95335.25;5009028;28;20061;-50
2021/10/01 05:35:35;;;;;;;10.18;7.60;;;;;;;32.82;18.78;95345.09;4988415;28;20057;-54
2021/10/01 05:38:03;;;;;;;8.45;6.90;;;;;;;32.88;18.42;95338.03;4974436;28;20074;-56
2021/10/01 05:40:31;;;;;;;6.55;5.88;;;;;;;32.77;18.77;95337.38;4974911;28;20047;-50
2021/10/01 05:42:58;;;;;;;7.57;5.32;;;;;;;32.49;18.97;95344.66;4993764;28;20043;-49
2021/10/01 05:45:26;;;;;;;8.23;4.80;;;;;;;32.50;19.10;95346.19;4993243;28;20055;-51
2021/10/01 05:48:27;;;;;;;7.53;5.43;;;;;;;32.47;19.14;95347.00;4964852;28;20057;-50
2021/10/01 05:51:13;;;;;;;9.38;5.35;;;;;;;32.37;18.87;95347.13;4959442;29;20051;-54
2021/10/01 05:54:45;;;;;;;8.45;5.70;;;;;;;32.18;18.95;95351.16;4978348;28;20055;-70
2021/10/01 05:57:06;;;;;;;8.88;6.07;;;;;;;32.39;18.85;95356.38;4975896;28;20050;-55
2021/10/01 05:59:41;;;;;;;7.70;5.35;;;;;;;32.42;18.87;95350.16;4992485;28;20050;-46
2021/10/01 06:02:12;;;;;;;7.78;5.50;;;;;;;32.29;19.23;95351.09;4984616;28;20038;-48
2021/10/01 06:04:40;;;;;;;8.70;5.60;;;;;;;32.11;19.69;95351.22;4983775;28;20054;-49
2021/10/01 06:07:07;;;;;;;10.00;5.60;;;;;;;32.27;19.21;95356.91;4995802;28;20065;-48
2021/10/01 06:09:35;;;;;;;11.98;5.43;;;;;;;32.34;19.09;95347.94;4989498;28;20061;-50
2021/10/01 06:12:02;;;;;;;8.48;5.78;;;;;;;32.54;19.03;95353.53;4977597;28;20058;-49
2021/10/01 06:14:29;;;;;;;11.30;6.20;;;;;;;32.53;19.51;95365.50;4978023;28;20050;-48
2021/10/01 06:16:56;;;;;;;8.68;5.60;;;;;;;32.56;19.27;95370.13;4977673;28;20046;-49
2021/10/01 06:19:23;;;;;;;13.80;5.75;;;;;;;32.64;19.42;95364.22;4977494;28;20043;-54
2021/10/01 06:21:52;;;;;;;11.75;7.18;;;;;;;32.66;19.03;95369.22;4980560;28;20050;-67
2021/10/01 06:24:19;;;;;;;7.20;4.95;;;;;;;32.42;19.41;95366.38;4997125;28;20046;-63
2021/10/01 06:26:49;;;;;;;6.30;4.63;;;;;;;32.56;19.04;95370.13;4980988;28;20051;-49
2021/10/01 06:29:16;;;;;;;5.15;3.70;;;;;;;32.77;19.07;95372.56;4977579;28;20408;-46
2021/10/01 06:31:44;;;;;;;5.75;3.47;;;;;;;32.71;19.07;95371.47;4979250;28;20047;-49
2021/10/01 06:34:12;;;;;;;4.50;3.45;;;;;;;32.74;19.12;95367.97;4996994;28;20054;-48
2021/10/01 06:36:39;;;;;;;5.97;3.55;;;;;;;32.75;18.92;95367.56;4983315;28;20050;-47
2021/10/01 06:39:07;;;;;;;6.97;3.42;;;;;;;32.79;18.78;95375.66;4977500;28;20339;-51
2021/10/01 06:41:35;;;;;;;6.82;3.55;;;;;;;32.57;18.81;95377.84;4977300;28;20043;-47
2021/10/01 06:44:05;;;;;;;5.00;3.15;;;;;;;32.77;18.47;95384.16;4992512;28;20054;-44
2021/10/01 06:49:57;;;;;;;4.90;3.28;;;;;;;32.99;18.38;95386.63;4977081;28;20046;-44
2021/10/01 06:52:17;;;;;;;5.18;3.10;;;;;;;32.74;18.93;95386.91;4972381;28;20145;-46
2021/10/01 08:19:54;;;;;;;5.25;4.38;;;;;;;33.91;15.04;95368.34;4975580;28;20080;-45
2021/10/01 08:22:21;;;;;;;4.72;4.22;;;;;;;33.71;14.44;95371.72;4982755;28;20461;-46
2021/10/01 08:24:48;;;;;;;6.25;4.22;;;;;;;33.72;14.33;95373.25;4995375;28;20053;-44
2021/10/01 08:27:16;;;;;;;5.82;4.18;;;;;;;33.79;14.50;95375.06;4978891;28;20053;-50
2021/10/01 08:29:43;;;;;;;6.50;4.00;;;;;;;33.81;14.25;95375.44;4975275;28;20646;-46
2021/10/01 08:32:11;;;;;;;5.32;3.92;;;;;;;33.96;14.18;95365.16;4975636;28;20055;-50
2021/10/01 08:34:39;;;;;;;6.40;3.80;;;;;;;33.81;14.43;95374.66;4995209;28;20050;-48
2021/10/01 08:37:07;;;;;;;5.10;3.80;;;;;;;33.93;14.61;95371.41;4980732;28;20046;-49
2021/10/01 08:39:34;;;;;;;6.68;3.92;;;;;;;34.04;14.03;95366.56;4973719;28;20061;-45
2021/10/01 08:42:01;;;;;;;10.18;4.28;;;;;;;33.90;14.03;95364.09;4990582;28;20039;-47
2021/10/01 08:44:30;;;;;;;5.65;3.58;;;;;;;33.65;14.24;95351.69;4975830;28;20393;-45
2021/10/01 08:47:02;;;;;;;6.68;3.88;;;;;;;33.77;13.59;95357.69;4975667;28;20055;-47
2021/10/01 08:49:30;;;;;;;8.45;5.03;;;;;;;33.69;13.66;95362.47;4975084;28;20043;-47
2021/10/01 08:51:58;;;;;;;5.15;3.63;;;;;;;33.90;13.35;95372.22;4994342;28;20053;-52
2021/10/01 08:54:26;;;;;;;5.32;3.38;;;;;;;33.67;13.51;95360.16;4970176;28;20058;-54
2021/10/01 08:56:53;;;;;;;5.10;3.60;;;;;;;33.92;13.07;95370.63;4956452;28;20043;-50
2021/10/01 08:59:20;;;;;;;7.07;3.53;;;;;;;33.90;13.31;95369.53;4956263;28;20051;-47
2021/10/01 09:01:47;;;;;;;8.20;3.70;;;;;;;33.88;13.25;95363.75;4975192;28;20046;-46
2021/10/01 09:04:14;;;;;;;5.35;3.65;;;;;;;33.99;13.15;95364.31;4990620;28;20361;-48
2021/10/01 09:06:41;;;;;;;6.15;3.90;;;;;;;34.06;13.22;95364.19;5010306;28;20050;-49
2021/10/01 09:09:09;;;;;;;7.57;4.32;;;;;;;33.96;13.31;95376.00;4994767;28;20050;-48
2021/10/01 09:11:47;;;;;;;8.23;3.53;;;;;;;33.41;13.50;95363.66;4975739;28;20047;-45
2021/10/01 09:14:20;;;;;;;7.68;3.80;;;;;;;33.84;13.50;95368.47;4975551;28;20043;-46
2021/10/01 09:16:47;;;;;;;7.55;3.90;;;;;;;33.81;13.74;95369.25;4975393;28;20047;-50
2021/10/01 09:19:14;;;;;;;7.28;3.63;;;;;;;33.87;13.44;95373.06;4975230;28;20050;-47
2021/10/01 09:21:47;;;;;;;6.13;3.85;;;;;;;33.94;13.51;95372.94;4978883;28;20053;-47
2021/10/01 09:24:17;;;;;;;6.22;3.50;;;;;;;33.23;13.16;95376.66;4998542;28;20046;-46
2021/10/01 09:26:50;;;;;;;6.15;3.25;;;;;;;33.52;13.73;95369.69;4998405;28;20065;-50
2021/10/01 09:29:49;;;;;;;3.83;3.10;;;;;;;33.90;13.37;95372.22;4987637;28;20054;-47
2021/10/01 09:32:17;;;;;;;7.88;3.88;;;;;;;33.58;13.66;95370.78;4962174;28;20074;-47
2021/10/01 09:34:47;;;;;;;6.40;3.65;;;;;;;33.56;13.93;95358.78;4996670;28;20368;-51
2021/10/01 09:37:21;;;;;;;6.93;3.80;;;;;;;33.79;13.51;95358.03;4998271;28;20046;-45
2021/10/01 09:39:57;;;;;;;6.05;3.67;;;;;;;33.94;13.70;95362.09;4995281;28;20080;-45
2021/10/01 09:42:26;;;;;;;7.60;3.60;;;;;;;34.07;13.55;95354.88;4978411;28;20047;-48
2021/10/01 09:45:02;;;;;;;7.75;3.50;;;;;;;33.79;13.88;95356.09;4978584;28;20466;-47
2021/10/01 09:47:34;;;;;;;4.78;3.60;;;;;;;33.75;13.59;95360.03;4978581;28;20054;-48
2021/10/01 09:50:07;;;;;;;6.30;3.30;;;;;;;34.14;13.26;95354.78;4978047;28;20081;-47
2021/10/01 09:52:43;;;;;;;8.40;3.58;;;;;;;33.86;14.16;95356.03;4986773;28;20054;-46
2021/10/01 09:55:11;;;;;;;6.03;3.60;;;;;;;34.09;13.33;95347.09;4997897;28;20362;-47
2021/10/01 09:57:39;;;;;;;4.70;3.50;;;;;;;33.99;13.62;95353.47;4997009;28;20460;-45
2021/10/01 10:00:07;;;;;;;9.57;3.70;;;;;;;34.23;13.74;95346.84;4993395;28;20047;-46
2021/10/01 10:02:39;;;;;;;5.75;3.42;;;;;;;34.10;13.71;95342.47;4978105;28;20054;-45
2021/10/01 10:05:07;;;;;;;6.07;3.60;;;;;;;33.98;13.63;95347.28;4997683;28;20046;-45
2021/10/01 10:07:39;;;;;;;5.93;4.10;;;;;;;34.22;13.68;95350.75;4997498;28;20057;-45
2021/10/01 10:10:08;;;;;;;6.07;3.90;;;;;;;34.11;13.22;95350.19;4993633;28;20058;-47
2021/10/01 10:12:39;;;;;;;4.82;3.35;;;;;;;33.89;13.52;95343.59;4977108;28;20085;-50
2021/10/01 10:15:17;;;;;;;3.97;3.38;;;;;;;33.86;13.43;95339.00;4978082;28;20450;-47
2021/10/01 10:17:49;;;;;;;4.68;3.80;;;;;;;33.93;13.29;95341.56;4977796;28;20393;-52
2021/10/01 10:20:18;;;;;;;7.20;3.88;;;;;;;34.07;13.18;95338.59;4977554;28;20046;-50
2021/10/01 10:22:46;;;;;;;4.60;3.60;;;;;;;33.87;13.05;95340.53;4987934;28;20433;-50
2021/10/01 10:25:13;;;;;;;9.68;3.90;;;;;;;33.70;12.91;95337.66;4997386;28;20061;-55
2021/10/01 10:27:40;;;;;;;6.70;3.72;;;;;;;33.66;12.93;95339.66;4997299;28;20050;-47
2021/10/01 10:30:07;;;;;;;4.70;3.53;;;;;;;33.65;12.96;95335.41;4993589;28;20051;-47
2021/10/01 10:32:34;;;;;;;8.85;3.83;;;;;;;33.81;12.99;95342.13;4976507;28;20454;-68
2021/10/01 10:35:06;;;;;;;5.63;3.70;;;;;;;33.93;12.92;95333.44;4995143;28;20050;-44
2021/10/01 10:37:46;;;;;;;4.50;3.55;;;;;;;33.85;13.32;95338.22;4978236;28;20046;-47
2021/10/01 10:40:15;;;;;;;4.00;3.60;;;;;;;34.02;12.84;95325.53;4977206;28;20054;-45
2021/10/01 10:42:45;;;;;;;7.00;3.88;;;;;;;34.26;12.95;95335.16;4977320;28;20043;-46
2021/10/01 10:45:20;;;;;;;4.60;3.42;;;;;;;34.07;13.15;95335.88;4977489;28;20548;-47
2021/10/01 10:47:55;;;;;;;4.97;3.50;;;;;;;34.11;13.02;95328.47;4977372;28;20062;-46
2021/10/01 10:50:22;;;;;;;7.40;3.85;;;;;;;34.16;13.13;95330.72;4976180;28;20062;-49
2021/10/01 10:53:17;;;;;;;5.72;3.63;;;;;;;34.22;12.90;95314.69;4976591;28;20055;-44
2021/10/01 10:55:53;;;;;;;5.20;3.47;;;;;;;33.86;12.70;95311.88;4976726;28;20054;-47
2021/10/01 10:58:26;;;;;;;7.60;3.45;;;;;;;33.54;12.82;95318.53;4974899;28;20078;-45
2021/10/01 11:00:59;;;;;;;6.18;3.40;;;;;;;33.74;12.98;95310.47;4976253;28;20057;-45
2021/10/01 11:03:28;;;;;;;8.77;3.72;;;;;;;33.83;12.79;95315.34;4977397;28;20049;-45
2021/10/01 11:06:15;;;;;;;6.22;3.65;;;;;;;33.45;12.89;95304.00;4973967;28;20046;-47
2021/10/01 11:08:50;;;;;;;5.80;3.67;;;;;;;33.56;12.70;95299.16;4973802;28;20074;-44
2021/10/01 11:11:32;;;;;;;9.18;3.80;;;;;;;33.91;12.68;95303.25;4975941;28;20057;-49
2021/10/01 11:14:14;;;;;;;7.35;3.60;;;;;;;34.24;12.52;95304.97;4970758;28;20062;-47
2021/10/01 11:16:43;;;;;;;4.95;3.45;;;;;;;34.03;12.53;95291.78;4974028;28;20054;-45
2021/10/01 11:19:10;;;;;;;8.77;3.80;;;;;;;33.83;12.53;95299.09;4976243;28;20055;-46
2021/10/01 11:21:43;;;;;;;6.20;3.63;;;;;;;33.98;12.54;95293.03;4976603;28;20049;-47
2021/10/01 11:24:14;;;;;;;6.10;3.92;;;;;;;33.85;12.71;95285.94;4979137;28;20063;-46
2021/10/01 11:26:42;;;;;;;;;;;;;;;33.84;12.82;95287.13;4977178;28;20053;-45
2021/10/01 11:29:39;;;;;;;4.43;3.78;;;;;;;33.64;13.02;95284.31;4976559;28;20240;-45
2021/10/01 11:32:08;;;;;;;6.85;3.88;;;;;;;33.90;12.93;95280.03;4964072;28;20053;-46
2021/10/01 11:34:43;;;;;;;4.25;3.70;;;;;;;33.73;12.88;95277.19;4982494;28;20043;-46
2021/10/01 11:37:33;;;;;;;6.10;4.20;;;;;;;33.73;12.97;95287.25;4972047;28;20051;-45
2021/10/01 11:40:14;;;;;;;7.90;3.53;;;;;;;33.69;12.95;95273.78;4957020;29;20050;-47
2021/10/01 11:42:45;;;;;;;8.75;3.55;;;;;;;33.92;12.70;95274.97;4976087;28;20295;-45
2021/10/01 11:45:19;;;;;;;4.80;3.78;;;;;;;33.60;12.96;95276.25;4976495;28;20049;-45
2021/10/01 11:48:06;;;;;;;7.40;3.92;;;;;;;33.68;12.99;95274.19;4975340;28;20051;-46
2021/10/01 11:50:39;;;;;;;6.38;3.67;;;;;;;33.87;12.81;95272.72;4976354;28;20123;-45
2021/10/01 11:53:18;;;;;;;8.10;3.90;;;;;;;33.66;12.81;95266.47;4981583;28;20043;-46
2021/10/01 11:56:01;;;;;;;4.70;3.33;;;;;;;33.73;13.25;95266.34;4975886;28;20058;-44
2021/10/01 11:58:30;;;;;;;6.45;3.40;;;;;;;33.76;13.26;95253.13;4976172;28;20050;-45
2021/10/01 12:01:08;;;;;;;7.13;3.58;;;;;;;33.95;12.87;95253.19;4976227;28;20366;-47
2021/10/01 12:03:35;;;;;;;4.22;3.63;;;;;;;33.78;13.04;95253.47;4977591;28;20053;-45
2021/10/01 12:06:03;;;;;;;5.68;3.85;;;;;;;33.81;13.09;95255.34;5006529;28;20365;-47
2021/10/01 12:08:34;;;;;;;6.63;3.70;;;;;;;33.87;12.80;95256.47;4976086;28;20058;-46
2021/10/01 12:11:02;;;;;;;7.70;3.60;;;;;;;34.05;12.83;95254.16;4976002;28;20051;-45
2021/10/01 12:13:31;;;;;;;4.60;3.70;;;;;;;33.88;12.82;95247.16;4975595;28;20054;-46
2021/10/01 12:16:04;;;;;;;6.88;3.65;;;;;;;33.83;12.65;95258.41;4975470;28;20058;-47
2021/10/01 12:18:38;;;;;;;5.68;3.60;;;;;;;33.61;13.12;95242.56;4975346;28;20062;-46
2021/10/01 12:21:19;;;;;;;7.30;3.95;;;;;;;33.69;12.68;95260.22;4975943;28;20046;-45
2021/10/01 12:23:50;;;;;;;7.07;3.60;;;;;;;33.69;12.92;95235.81;4982020;28;20062;-45
2021/10/01 12:26:33;;;;;;;7.90;4.18;;;;;;;34.00;12.97;95246.53;4975972;28;20054;-45
2021/10/01 12:29:12;;;;;;;5.40;3.70;;;;;;;33.30;13.34;95238.38;4973404;28;20065;-46
2021/10/01 12:31:53;;;;;;;4.55;3.60;;;;;;;34.11;12.53;95236.25;4975687;28;20454;-45
2021/10/01 12:34:25;;;;;;;9.63;4.03;;;;;;;33.83;13.03;95244.84;4981920;28;20050;-46
2021/10/01 12:37:07;;;;;;;7.25;4.15;;;;;;;34.03;12.79;95248.41;4995179;28;20046;-45
2021/10/01 12:39:37;;;;;;;6.60;4.10;;;;;;;33.94;12.88;95238.09;4976688;28;20058;-47
2021/10/01 12:42:07;;;;;;;7.43;4.43;;;;;;;34.09;12.47;95227.72;4975660;28;20123;-45
2021/10/01 12:44:37;;;;;;;5.40;3.78;;;;;;;33.71;13.03;95230.75;4975736;28;20054;-45
2021/10/01 12:47:16;;;;;;;7.40;3.97;;;;;;;33.86;12.80;95230.53;4975540;28;20050;-45
2021/10/01 12:49:55;;;;;;;5.90;4.03;;;;;;;33.83;13.08;95232.13;4974884;28;20062;-45
2021/10/01 12:52:25;;;;;;;6.63;5.40;;;;;;;32.77;13.66;95227.16;4982469;28;20046;-45
2021/10/01 12:54:55;;;;;;;8.95;7.35;;;;;;;33.60;14.17;95232.88;4957289;28;20469;-46
2021/10/01 12:57:29;;;;;;;9.00;5.35;;;;;;;34.78;14.35;95234.09;4959968;28;20047;-46
2021/10/01 13:00:02;;;;;;;6.05;3.75;;;;;;;34.60;13.34;95231.00;4978684;28;20058;-44
2021/10/01 13:02:39;;;;;;;5.72;3.85;;;;;;;33.75;13.82;95229.91;4994272;28;20051;-67
2021/10/01 13:05:21;;;;;;;6.32;4.15;;;;;;;33.67;13.84;95224.63;4990619;28;20046;-44
2021/10/01 13:07:49;;;;;;;7.03;3.85;;;;;;;33.66;13.73;95223.09;4995995;28;20046;-45
2021/10/01 13:10:19;;;;;;;8.90;3.88;;;;;;;33.86;13.68;95234.00;4978794;28;20050;-46
2021/10/01 13:12:57;;;;;;;4.00;3.60;;;;;;;33.78;13.31;95223.66;4979196;28;20054;-52
2021/10/01 13:15:46;;;;;;;5.85;4.05;;;;;;;33.94;13.42;95221.84;4979293;28;20047;-44
2021/10/01 13:18:35;;;;;;;5.05;3.60;;;;;;;33.65;13.67;95216.16;4978630;28;20046;-45
2021/10/01 13:21:02;;;;;;;5.55;3.88;;;;;;;33.64;13.77;95225.47;4979102;28;20055;-46
2021/10/01 13:23:31;;;;;;;4.45;3.65;;;;;;;33.81;13.33;95220.09;4962899;28;20055;-44
2021/10/01 13:26:02;;;;;;;7.32;4.00;;;;;;;33.78;13.41;95212.81;4960023;29;20059;-46